createdAt,value
2019-03-11T00:01:23.296Z,6.80
2019-03-11T00:03:57.086Z,6.80
2019-03-11T00:06:30.868Z,6.80
2019-03-11T00:09:04.576Z,6.70
2019-03-11T00:11:38.190Z,6.70
2019-03-11T00:14:11.961Z,6.70
2019-03-11T00:16:45.694Z,6.60
2019-03-11T00:19:20.196Z,6.60
2019-03-11T00:21:53.941Z,6.60
2019-03-11T00:24:28.319Z,6.50
2019-03-11T00:27:01.999Z,6.50
2019-03-11T00:29:35.757Z,6.50
2019-03-11T00:32:10.333Z,6.40
2019-03-11T00:34:44.003Z,6.40
2019-03-11T00:37:17.671Z,6.40
2019-03-11T00:39:51.242Z,6.40
2019-03-11T00:42:24.922Z,6.40
2019-03-11T00:44:58.441Z,6.40
2019-03-11T00:47:32.753Z,6.30
2019-03-11T00:50:06.395Z,6.30
2019-03-11T00:52:40.093Z,6.30
2019-03-11T00:55:13.662Z,6.30
2019-03-11T00:57:47.349Z,6.20
2019-03-11T01:00:30.825Z,6.20
2019-03-11T01:03:04.531Z,6.10
2019-03-11T01:05:38.086Z,6.20
2019-03-11T01:08:11.741Z,6.20
2019-03-11T01:10:45.463Z,6.10
2019-03-11T01:13:19.188Z,6.10
2019-03-11T01:15:52.712Z,6.10
2019-03-11T01:18:26.409Z,6.10
2019-03-11T01:21:00.208Z,6.10
2019-03-11T01:23:33.767Z,6.10
2019-03-11T01:26:07.315Z,6.10
2019-03-11T01:28:41.759Z,6.10
2019-03-11T01:31:15.307Z,6.10
2019-03-11T01:33:49.666Z,6.00
2019-03-11T01:36:23.984Z,6.00
2019-03-11T01:38:57.563Z,6.00
2019-03-11T01:41:31.274Z,6.00
2019-03-11T01:44:04.859Z,5.90
2019-03-11T01:46:38.378Z,5.90
2019-03-11T01:49:11.889Z,5.90
2019-03-11T01:51:45.466Z,5.90
2019-03-11T01:54:19.114Z,5.90
2019-03-11T01:56:52.791Z,5.90
2019-03-11T01:59:26.372Z,5.80
2019-03-11T02:01:59.931Z,5.80
2019-03-11T02:04:34.416Z,5.70
2019-03-11T02:07:08.131Z,5.70
2019-03-11T02:09:41.936Z,5.70
2019-03-11T02:12:15.560Z,5.70
2019-03-11T02:14:49.888Z,5.70
2019-03-11T02:17:23.680Z,5.70
2019-03-11T02:19:58.114Z,5.70
2019-03-11T02:22:31.625Z,5.70
2019-03-11T02:25:05.284Z,5.70
2019-03-11T02:27:38.862Z,5.70
2019-03-11T02:30:12.427Z,5.70
2019-03-11T02:32:46.080Z,5.60
2019-03-11T02:35:24.471Z,5.60
2019-03-11T02:37:58.046Z,5.70
2019-03-11T02:40:31.740Z,5.70
2019-03-11T02:43:05.407Z,5.80
2019-03-11T02:45:39.687Z,5.80
2019-03-11T02:48:13.297Z,5.80
2019-03-11T02:50:47.137Z,5.80
2019-03-11T02:53:20.807Z,5.80
2019-03-11T02:55:55.274Z,5.90
2019-03-11T02:58:29.748Z,5.80
2019-03-11T03:01:09.299Z,5.80
2019-03-11T03:03:43.320Z,5.80
2019-03-11T03:06:17.004Z,5.70
2019-03-11T03:08:50.686Z,5.70
2019-03-11T03:11:24.342Z,5.70
2019-03-11T03:13:58.835Z,5.70
2019-03-11T03:16:33.263Z,5.70
2019-03-11T03:19:07.819Z,5.80
2019-03-11T03:21:41.783Z,5.70
2019-03-11T03:24:15.512Z,5.80
2019-03-11T03:26:49.062Z,5.80
2019-03-11T03:29:22.638Z,5.80
2019-03-11T03:31:57.138Z,6.00
2019-03-11T03:34:30.783Z,6.00
2019-03-11T03:37:04.562Z,6.10
2019-03-11T03:39:38.145Z,6.10
2019-03-11T03:42:13.613Z,6.10
2019-03-11T03:44:48.016Z,6.10
2019-03-11T03:47:21.823Z,6.10
2019-03-11T03:49:55.432Z,6.00
2019-03-11T03:52:29.830Z,6.00
2019-03-11T03:55:04.275Z,6.10
2019-03-11T03:57:37.808Z,6.00
2019-03-11T04:00:11.689Z,6.00
2019-03-11T04:02:45.299Z,6.00
2019-03-11T04:05:19.811Z,5.90
2019-03-11T04:07:53.553Z,5.90
2019-03-11T04:10:27.132Z,5.90
2019-03-11T04:13:00.749Z,5.80
2019-03-11T04:15:35.276Z,5.70
2019-03-11T04:18:09.015Z,5.70
2019-03-11T04:20:42.651Z,5.80
2019-03-11T04:23:16.388Z,5.70
2019-03-11T04:25:50.159Z,5.70
2019-03-11T04:28:23.879Z,5.70
2019-03-11T04:30:57.631Z,5.70
2019-03-11T04:33:32.166Z,5.70
2019-03-11T04:36:05.804Z,5.70
2019-03-11T04:38:39.507Z,5.70
2019-03-11T04:41:13.184Z,5.60
2019-03-11T04:43:46.800Z,5.60
2019-03-11T04:46:20.568Z,5.70
2019-03-11T04:48:54.927Z,5.70
2019-03-11T04:51:28.639Z,5.60
2019-03-11T04:54:02.371Z,5.60
2019-03-11T04:56:36.037Z,5.50
2019-03-11T04:59:09.645Z,5.50
2019-03-11T05:01:43.212Z,5.40
2019-03-11T05:04:17.521Z,5.40
2019-03-11T05:06:51.208Z,5.30
2019-03-11T05:09:25.565Z,5.30
2019-03-11T05:11:59.234Z,5.20
2019-03-11T05:14:33.583Z,5.30
2019-03-11T05:17:07.970Z,5.30
2019-03-11T05:19:42.433Z,5.30
2019-03-11T05:22:16.311Z,5.30
2019-03-11T05:24:50.045Z,5.20
2019-03-11T05:27:23.688Z,5.20
2019-03-11T05:29:58.191Z,5.20
2019-03-11T05:32:31.779Z,5.20
2019-03-11T05:35:06.388Z,5.20
2019-03-11T05:37:40.115Z,5.20
2019-03-11T05:40:14.903Z,5.20
2019-03-11T05:42:48.793Z,5.10
2019-03-11T05:45:22.471Z,5.10
2019-03-11T05:47:56.311Z,5.10
2019-03-11T05:50:30.073Z,5.10
2019-03-11T05:53:03.763Z,5.00
2019-03-11T05:55:39.553Z,5.10
2019-03-11T05:58:16.027Z,5.20
2019-03-11T06:00:49.815Z,5.80
2019-03-11T06:03:23.363Z,6.50
2019-03-11T06:05:56.988Z,6.70
2019-03-11T06:08:30.760Z,6.40
2019-03-11T06:11:04.575Z,6.10
2019-03-11T06:13:38.897Z,6.00
2019-03-11T06:16:12.428Z,5.90
2019-03-11T06:18:46.086Z,5.90
2019-03-11T06:21:27.033Z,5.90
2019-03-11T06:24:00.712Z,5.90
2019-03-11T06:26:34.262Z,5.90
2019-03-11T06:29:07.972Z,5.80
2019-03-11T06:31:42.351Z,6.80
2019-03-11T06:34:16.599Z,6.80
2019-03-11T06:36:51.019Z,6.30
2019-03-11T06:39:24.763Z,6.30
2019-03-11T06:41:58.481Z,6.20
2019-03-11T06:44:32.201Z,6.10
2019-03-11T06:47:05.951Z,6.20
2019-03-11T06:49:39.780Z,6.10
2019-03-11T06:52:14.304Z,6.10
2019-03-11T06:54:47.921Z,6.10
2019-03-11T06:57:21.624Z,6.10
2019-03-11T06:59:55.628Z,6.10
2019-03-11T07:02:29.448Z,6.00
2019-03-11T07:05:03.823Z,6.00
2019-03-11T07:07:38.180Z,6.10
2019-03-11T07:10:13.400Z,6.00
2019-03-11T07:12:48.002Z,6.00
2019-03-11T07:15:21.759Z,6.00
2019-03-11T07:17:55.408Z,5.90
2019-03-11T07:20:29.099Z,5.90
2019-03-11T07:23:03.448Z,6.00
2019-03-11T07:25:37.014Z,6.00
2019-03-11T07:28:10.581Z,6.00
2019-03-11T07:30:44.123Z,6.10
2019-03-11T07:33:17.786Z,6.10
2019-03-11T07:35:51.536Z,6.20
2019-03-11T07:38:25.532Z,6.20
2019-03-11T07:40:59.311Z,6.20
2019-03-11T07:43:33.019Z,6.30
2019-03-11T07:46:06.671Z,6.20
2019-03-11T07:48:40.340Z,6.20
2019-03-11T07:51:14.696Z,6.20
2019-03-11T07:53:48.249Z,6.20
2019-03-11T07:56:21.867Z,6.10
2019-03-11T07:58:55.606Z,6.20
2019-03-11T08:01:29.458Z,6.00
2019-03-11T08:04:03.023Z,5.50
2019-03-11T08:06:36.835Z,5.10
2019-03-11T08:09:10.412Z,5.00
2019-03-11T08:11:43.991Z,4.90
2019-03-11T08:14:18.331Z,4.90
2019-03-11T08:16:51.910Z,4.80
2019-03-11T08:19:25.608Z,5.00
2019-03-11T08:21:59.251Z,5.00
2019-03-11T08:24:33.756Z,4.50
2019-03-11T08:27:08.166Z,4.80
2019-03-11T08:29:41.867Z,4.80
2019-03-11T08:32:15.629Z,5.10
2019-03-11T08:34:50.032Z,5.60
2019-03-11T08:37:23.602Z,6.20
2019-03-11T08:39:57.403Z,7.00
2019-03-11T08:42:31.127Z,8.20
2019-03-11T08:45:04.870Z,9.20
2019-03-11T08:47:38.552Z,10.60
2019-03-11T08:50:12.352Z,10.60
2019-03-11T08:52:46.679Z,10.30
2019-03-11T08:55:20.384Z,10.30
2019-03-11T08:57:54.014Z,9.70
2019-03-11T09:00:27.759Z,9.00
2019-03-11T09:03:01.506Z,8.80
2019-03-11T09:05:35.172Z,8.50
2019-03-11T09:08:09.684Z,8.60
2019-03-11T09:10:43.212Z,8.60
2019-03-11T09:13:16.778Z,8.80
2019-03-11T09:15:52.775Z,8.70
2019-03-11T09:18:24.133Z,8.60
2019-03-11T09:20:58.251Z,8.30
2019-03-11T09:23:32.061Z,7.90
2019-03-11T09:26:05.743Z,7.60
2019-03-11T09:28:39.343Z,7.80
2019-03-11T09:31:13.065Z,7.80
2019-03-11T09:33:46.678Z,7.60
2019-03-11T09:36:20.342Z,7.50
2019-03-11T09:38:53.938Z,8.00
2019-03-11T09:41:27.630Z,8.50
2019-03-11T09:44:01.249Z,8.50
2019-03-11T09:46:34.966Z,8.80
2019-03-11T09:49:08.601Z,9.50
2019-03-11T09:51:42.284Z,10.30
2019-03-11T09:54:16.082Z,9.50
2019-03-11T09:56:49.675Z,9.60
2019-03-11T09:59:24.084Z,9.00
2019-03-11T10:01:57.828Z,9.00
2019-03-11T10:04:31.407Z,8.90
2019-03-11T10:07:05.209Z,9.40
2019-03-11T10:09:38.913Z,9.90
2019-03-11T10:12:12.680Z,10.10
2019-03-11T10:14:46.374Z,9.50
2019-03-11T10:17:19.997Z,9.00
2019-03-11T10:19:53.572Z,9.30
2019-03-11T10:22:27.877Z,9.50
2019-03-11T10:25:01.548Z,10.10
2019-03-11T10:27:35.158Z,10.60
2019-03-11T10:30:11.213Z,10.90
2019-03-11T10:32:44.760Z,10.90
2019-03-11T10:35:31.451Z,10.60
2019-03-11T10:37:52.309Z,11.40
2019-03-11T10:40:25.916Z,12.10
2019-03-11T10:42:59.624Z,11.20
2019-03-11T10:45:33.151Z,10.00
2019-03-11T10:48:06.655Z,9.00
2019-03-11T10:50:40.324Z,9.20
2019-03-11T10:53:13.986Z,9.80
2019-03-11T10:55:47.693Z,10.00
2019-03-11T10:58:21.338Z,10.40
2019-03-11T11:00:55.060Z,10.90
2019-03-11T11:03:28.811Z,10.50
2019-03-11T11:06:03.366Z,9.70
2019-03-11T11:08:37.340Z,9.70
2019-03-11T11:11:10.865Z,9.80
2019-03-11T11:13:44.497Z,11.60
2019-03-11T11:16:18.219Z,11.10
2019-03-11T11:18:51.852Z,9.60
2019-03-11T11:21:25.476Z,8.70
2019-03-11T11:23:59.892Z,8.20
2019-03-11T11:26:34.286Z,8.80
2019-03-11T11:29:08.832Z,9.30
2019-03-11T11:31:42.434Z,9.30
2019-03-11T11:34:16.314Z,9.70
2019-03-11T11:36:50.714Z,11.40
2019-03-11T11:39:24.413Z,11.40
2019-03-11T11:41:58.929Z,12.00
2019-03-11T11:44:32.690Z,12.00
2019-03-11T11:47:06.319Z,12.60
2019-03-11T11:49:39.896Z,12.30
2019-03-11T11:52:13.602Z,13.40
2019-03-11T11:54:47.369Z,11.90
2019-03-11T11:57:21.177Z,11.90
2019-03-11T11:59:55.170Z,11.40
2019-03-11T12:02:29.542Z,10.10
2019-03-11T12:05:03.800Z,10.10
2019-03-11T12:07:38.261Z,9.50
2019-03-11T12:10:19.645Z,9.50
2019-03-11T12:12:54.103Z,9.50
2019-03-11T12:15:27.831Z,9.50
2019-03-11T12:18:01.435Z,9.00
2019-03-11T12:20:35.899Z,8.10
2019-03-11T12:23:09.597Z,8.10
2019-03-11T12:25:43.174Z,8.50
2019-03-11T12:28:17.124Z,8.90
2019-03-11T12:30:50.706Z,8.90
2019-03-11T12:33:25.143Z,8.70
2019-03-11T12:35:59.549Z,8.80
2019-03-11T12:38:34.187Z,8.70
2019-03-11T12:41:07.877Z,8.70
2019-03-11T12:43:41.679Z,9.00
2019-03-11T12:46:15.353Z,9.30
2019-03-11T12:48:49.030Z,8.80
2019-03-11T12:51:23.537Z,8.20
2019-03-11T12:53:57.224Z,8.10
2019-03-11T12:56:30.903Z,8.20
2019-03-11T12:59:04.435Z,8.10
2019-03-11T13:01:38.980Z,8.40
2019-03-11T13:04:12.723Z,8.40
2019-03-11T13:06:46.608Z,8.30
2019-03-11T13:09:20.348Z,8.50
2019-03-11T13:11:53.945Z,8.80
2019-03-11T13:14:29.163Z,9.00
2019-03-11T13:17:03.642Z,9.00
2019-03-11T13:19:37.175Z,8.90
2019-03-11T13:22:10.729Z,9.00
2019-03-11T13:24:44.311Z,9.00
2019-03-11T13:27:17.865Z,9.10
2019-03-11T13:29:51.400Z,9.40
2019-03-11T13:32:27.042Z,9.00
2019-03-11T13:34:58.628Z,8.90
2019-03-11T13:37:32.325Z,9.00
2019-03-11T13:40:08.317Z,9.10
2019-03-11T13:42:42.004Z,9.10
2019-03-11T13:45:15.628Z,9.00
2019-03-11T13:47:49.237Z,9.10
2019-03-11T13:50:23.011Z,8.90
2019-03-11T13:52:57.493Z,8.70
2019-03-11T13:55:31.031Z,8.80
2019-03-11T13:58:04.810Z,8.70
2019-03-11T14:00:38.444Z,8.60
2019-03-11T14:03:11.989Z,8.40
2019-03-11T14:05:45.931Z,8.30
2019-03-11T14:08:19.814Z,8.50
2019-03-11T14:10:53.564Z,8.50
2019-03-11T14:13:27.303Z,8.50
2019-03-11T14:16:00.914Z,8.40
2019-03-11T14:18:34.617Z,8.30
2019-03-11T14:21:08.263Z,8.30
2019-03-11T14:23:42.172Z,8.20
2019-03-11T14:26:16.875Z,8.40
2019-03-11T14:28:50.440Z,8.20
2019-03-11T14:31:25.034Z,8.30
2019-03-11T14:33:58.803Z,8.30
2019-03-11T14:36:33.249Z,8.50
2019-03-11T14:39:06.997Z,8.40
2019-03-11T14:41:41.486Z,8.20
2019-03-11T14:44:16.103Z,8.20
2019-03-11T14:46:49.753Z,8.20
2019-03-11T14:49:23.418Z,8.20
2019-03-11T14:51:57.072Z,8.10
2019-03-11T14:54:30.785Z,8.20
2019-03-11T14:57:04.568Z,8.10
2019-03-11T14:59:38.239Z,8.30
2019-03-11T15:02:11.999Z,8.40
2019-03-11T15:04:45.671Z,8.50
2019-03-11T15:07:19.425Z,8.60
2019-03-11T15:09:54.644Z,8.70
2019-03-11T15:12:28.283Z,8.30
2019-03-11T15:15:02.795Z,8.10
2019-03-11T15:17:36.426Z,8.10
2019-03-11T15:20:10.231Z,8.10
2019-03-11T15:22:44.149Z,7.90
2019-03-11T15:25:17.867Z,7.80
2019-03-11T15:27:52.709Z,7.80
2019-03-11T15:30:27.272Z,7.90
2019-03-11T15:33:01.060Z,8.00
2019-03-11T15:35:35.591Z,8.10
2019-03-11T15:38:09.161Z,8.00
2019-03-11T15:40:42.782Z,8.00
2019-03-11T15:43:16.452Z,7.90
2019-03-11T15:45:50.173Z,7.90
2019-03-11T15:48:24.055Z,7.90
2019-03-11T15:50:57.713Z,8.00
2019-03-11T15:53:31.503Z,7.90
2019-03-11T15:56:05.283Z,8.00
2019-03-11T15:58:38.789Z,7.90
2019-03-11T16:01:12.364Z,7.60
2019-03-11T16:03:46.084Z,7.40
2019-03-11T16:06:19.699Z,6.80
2019-03-11T16:08:53.239Z,6.20
2019-03-11T16:11:26.835Z,5.80
2019-03-11T16:14:00.629Z,5.30
2019-03-11T16:16:34.321Z,5.10
2019-03-11T16:19:08.163Z,5.00
2019-03-11T16:21:42.785Z,5.10
2019-03-11T16:24:17.424Z,5.20
2019-03-11T16:26:51.284Z,5.30
2019-03-11T16:29:25.179Z,5.40
2019-03-11T16:31:58.929Z,5.50
2019-03-11T16:34:32.592Z,5.30
2019-03-11T16:37:06.196Z,5.30
2019-03-11T16:39:39.751Z,5.40
2019-03-11T16:42:14.084Z,5.50
2019-03-11T16:44:47.619Z,5.50
2019-03-11T16:47:21.143Z,5.50
2019-03-11T16:49:55.457Z,5.50
2019-03-11T16:52:29.269Z,5.50
2019-03-11T16:55:03.010Z,5.60
2019-03-11T16:57:36.659Z,5.50
2019-03-11T17:00:12.349Z,5.50
2019-03-11T17:02:46.875Z,5.30
2019-03-11T17:05:20.488Z,5.20
2019-03-11T17:07:54.990Z,5.40
2019-03-11T17:10:28.594Z,5.40
2019-03-11T17:13:02.416Z,5.50
2019-03-11T17:15:36.750Z,5.60
2019-03-11T17:18:11.310Z,5.70
2019-03-11T17:20:45.309Z,5.60
2019-03-11T17:23:18.959Z,5.70
2019-03-11T17:25:52.631Z,5.80
2019-03-11T17:28:26.178Z,5.80
2019-03-11T17:31:00.512Z,5.90
2019-03-11T17:33:34.183Z,5.90
2019-03-11T17:36:07.920Z,5.90
2019-03-11T17:38:41.649Z,6.00
2019-03-11T17:41:15.313Z,6.00
2019-03-11T17:43:49.796Z,5.90
2019-03-11T17:46:24.219Z,6.00
2019-03-11T17:48:57.825Z,5.90
2019-03-11T17:51:31.452Z,5.90
2019-03-11T17:54:06.045Z,5.90
2019-03-11T17:56:40.488Z,5.90
2019-03-11T17:59:14.874Z,5.90
2019-03-11T18:01:48.590Z,5.90
2019-03-11T18:04:22.329Z,5.90
2019-03-11T18:06:56.056Z,5.90
2019-03-11T18:09:29.828Z,5.90
2019-03-11T18:12:03.526Z,5.90
2019-03-11T18:14:37.130Z,5.90
2019-03-11T18:17:10.842Z,5.90
2019-03-11T18:19:44.619Z,5.90
2019-03-11T18:22:18.269Z,6.00
2019-03-11T18:24:52.072Z,6.00
2019-03-11T18:27:25.760Z,6.00
2019-03-11T18:29:59.387Z,5.90
2019-03-11T18:32:33.150Z,5.90
2019-03-11T18:35:06.740Z,5.90
2019-03-11T18:37:40.419Z,5.90
2019-03-11T18:40:14.216Z,5.90
2019-03-11T18:42:47.777Z,5.80
2019-03-11T18:45:21.517Z,5.80
2019-03-11T18:47:55.823Z,5.80
2019-03-11T18:50:29.476Z,5.80
2019-03-11T18:53:03.414Z,5.80
2019-03-11T18:55:37.176Z,5.80
2019-03-11T18:58:10.962Z,5.80
2019-03-11T19:00:44.547Z,5.80
2019-03-11T19:03:18.260Z,5.90
2019-03-11T19:05:51.839Z,5.90
2019-03-11T19:08:26.314Z,6.10
2019-03-11T19:11:00.039Z,6.10
2019-03-11T19:13:33.729Z,6.10
2019-03-11T19:16:07.423Z,6.10
2019-03-11T19:18:41.295Z,6.20
2019-03-11T19:21:15.017Z,6.20
2019-03-11T19:23:48.622Z,6.20
2019-03-11T19:26:22.379Z,6.20
2019-03-11T19:28:55.844Z,6.20
2019-03-11T19:31:29.431Z,6.20
2019-03-11T19:34:03.252Z,6.20
2019-03-11T19:36:37.696Z,6.10
2019-03-11T19:39:11.484Z,6.10
2019-03-11T19:41:45.279Z,6.00
2019-03-11T19:44:19.002Z,5.90
2019-03-11T19:46:53.355Z,5.80
2019-03-11T19:49:26.976Z,5.80
2019-03-11T19:52:01.396Z,5.90
2019-03-11T19:54:35.868Z,5.90
2019-03-11T19:57:09.629Z,5.90
2019-03-11T19:59:43.299Z,6.00
2019-03-11T20:02:17.005Z,6.00
2019-03-11T20:04:50.771Z,6.00
2019-03-11T20:07:24.508Z,6.00
2019-03-11T20:09:58.234Z,6.00
2019-03-11T20:12:32.081Z,6.00
2019-03-11T20:15:06.371Z,6.00
2019-03-11T20:17:40.124Z,6.00
2019-03-11T20:20:13.786Z,5.90
2019-03-11T20:22:47.382Z,5.90
2019-03-11T20:25:24.475Z,5.90
2019-03-11T20:27:58.073Z,5.90
2019-03-11T20:30:31.910Z,6.00
2019-03-11T20:33:06.487Z,6.00
2019-03-11T20:35:40.190Z,6.00
2019-03-11T20:38:14.564Z,6.10
2019-03-11T20:40:48.394Z,6.10
2019-03-11T20:43:22.054Z,6.00
2019-03-11T20:45:55.792Z,5.90
2019-03-11T20:48:29.695Z,5.90
2019-03-11T20:51:03.213Z,5.80
2019-03-11T20:53:36.902Z,5.80
2019-03-11T20:56:10.730Z,5.90
2019-03-11T20:58:44.561Z,5.90
2019-03-11T21:01:19.033Z,6.00
2019-03-11T21:03:52.667Z,6.00
2019-03-11T21:06:26.421Z,6.00
2019-03-11T21:09:00.135Z,6.00
2019-03-11T21:11:33.765Z,6.00
2019-03-11T21:14:08.789Z,6.00
2019-03-11T21:16:42.564Z,5.90
2019-03-11T21:19:16.369Z,5.90
2019-03-11T21:21:50.920Z,5.80
2019-03-11T21:24:24.553Z,5.80
2019-03-11T21:26:58.159Z,5.90
2019-03-11T21:29:32.543Z,5.90
2019-03-11T21:32:07.007Z,5.80
2019-03-11T21:34:40.650Z,5.80
2019-03-11T21:37:15.140Z,5.80
2019-03-11T21:39:47.921Z,5.80
2019-03-11T21:42:22.355Z,5.70
2019-03-11T21:44:56.156Z,5.70
2019-03-11T21:47:29.693Z,5.60
2019-03-11T21:50:04.183Z,5.70
2019-03-11T21:52:38.760Z,5.70
2019-03-11T21:55:13.084Z,5.70
2019-03-11T21:57:46.883Z,5.70
2019-03-11T22:00:33.861Z,5.70
2019-03-11T22:02:57.623Z,5.70
2019-03-11T22:05:31.289Z,5.70
2019-03-11T22:08:04.963Z,5.70
2019-03-11T22:10:38.652Z,5.70
2019-03-11T22:13:12.245Z,5.70
2019-03-11T22:15:46.662Z,5.60
2019-03-11T22:18:21.006Z,5.60
2019-03-11T22:20:54.624Z,5.50
2019-03-11T22:23:28.289Z,5.50
2019-03-11T22:26:01.917Z,5.50
2019-03-11T22:28:35.678Z,5.50
2019-03-11T22:31:10.057Z,5.40
2019-03-11T22:33:43.800Z,5.40
2019-03-11T22:36:17.447Z,5.40
2019-03-11T22:38:51.263Z,5.40
2019-03-11T22:41:24.998Z,5.40
2019-03-11T22:43:59.272Z,5.40
2019-03-11T22:46:33.671Z,5.40
2019-03-11T22:49:07.367Z,5.40
2019-03-11T22:51:41.090Z,5.40
2019-03-11T22:54:15.411Z,5.30
2019-03-11T22:56:49.945Z,5.20
2019-03-11T22:59:24.211Z,5.20
2019-03-11T23:01:58.496Z,5.10
2019-03-11T23:04:32.067Z,5.10
2019-03-11T23:07:05.615Z,5.10
2019-03-11T23:09:39.351Z,5.10
2019-03-11T23:12:15.903Z,5.10
2019-03-11T23:14:50.105Z,5.00
2019-03-11T23:17:23.672Z,5.00
2019-03-11T23:19:57.251Z,5.00
2019-03-11T23:22:30.931Z,5.00
2019-03-11T23:25:04.791Z,5.00
2019-03-11T23:27:38.564Z,5.00
2019-03-11T23:30:13.009Z,5.00
2019-03-11T23:32:46.699Z,4.90
2019-03-11T23:35:21.066Z,4.90
2019-03-11T23:37:54.805Z,4.90
2019-03-11T23:40:28.449Z,4.90
2019-03-11T23:43:02.166Z,4.90
2019-03-11T23:45:35.801Z,4.90
2019-03-11T23:48:09.470Z,4.90
2019-03-11T23:50:43.169Z,5.00
2019-03-11T23:53:16.958Z,5.00
2019-03-11T23:55:50.527Z,5.00
2019-03-11T23:58:24.271Z,5.00
